Angier, NC (27501)

2:24 AM EST on February 06, 2016 (GMT -0500)
Kipling | | Change Station
CLOSE
Current Station
Personal Weather Station
Location: Fuquay Varina, NC
Elevation: 289 ft
Nearby Weather Stations

Elev 289 ft 35.47 °N, 78.81 °W | Updated 8 seconds ago

Clear
Clear
28.8 °F
Feels Like 29 °F
N
0.0
Wind Variable Wind from NNW
Gusts 0.0 mph

Today
High -- | Low -- °F
--% Chance of Precip.
Yesterday
High -- | Low -- °F
Precip. -- in
Pressure 30.41 in
Visibility 10.0 miles
Clouds Clear
Windchill 29 °F
Dew Point 24 °F
Humidity 83%
Rainfall 0.00 in
Snow Depth Not available.
7:10 AM 5:47 PM
Waning Crescent, 7% visible
METAR KHRJ 060715Z AUTO 32004KT 10SM CLR M01/M01 A3041 RMK AO2 T10121012
Pressure 30.41 in
Visibility 10.0 miles
Clouds Clear
Windchill 29 °F
Dew Point 24 °F
Humidity 83%
Rainfall 0.00 in
Snow Depth Not available.
7:10 AM 5:47 PM
Waning Crescent, 7% visible
METAR KHRJ 060715Z AUTO 32004KT 10SM CLR M01/M01 A3041 RMK AO2 T10121012

10-Day Weather Forecast

Almanac

Astronomy

Feb. 06, 2016 Rise Set
Actual Time
Civil Twilight
Nautical Twilight
Astronomical Twilight
Moon
Length of Visible Light
Length of Day
Tomorrow will be .
, % of the Moon is Illuminated

Today's Extremes

State Highs State Lows

Community

WunderPhotos

Upload Photos

1,890,933 photos uploaded!

WunderBlog® & News

Nearby

Air Quality

  Air Quality AQ Index Pollutant
Not available.

Snow Depth

Station Depth Elevation

Earthquake Activity

City Distance Mag. Time & Date
Minimum magnitude displayed is 2.5.

Coastal Water Temperatures

Place Temperature

Stations

Nearby Weather Stations

Station Location Temp. Windchill Dew Point Humidity Wind Precip. Elev Updated Type
                   

Watches & Warnings

There are currently no watches in effect.